Terminal Aerodrome Forecast
Issued by NWS

Home | Current Version | Previous Version | Text Only | Print | Product List | Glossary On
Versions: 1 2 3 4 5 6 7 8 9 10 11 12 13 14 15 16 17 18
000
FTUS45 KABQ 071740
TAFSAF
TAF
KSAF 071740Z 0718/0818 19007KT P6SM SCT015 BKN030
      TEMPO 0718/0720 BKN015
     FM072000 17010KT P6SM SCT030 BKN110
     FM072230 17011KT P6SM VCTS SCT045CB BKN110
      TEMPO 0723/0802 VRB15G25KT -TSRA BKN050CB
     FM080200 13015KT P6SM VCSH SCT045 BKN110
     FM080500 12008KT P6SM FEW045 BKN110
      TEMPO 0809/0813 5SM BR BKN020=

USA.gov is the U.S. government's official web portal to all federal, state and local government web resources and services.